Time;durP1;ratioP1;P1;durP2;ratioP2;P2;SDS_P1;SDS_P2;PMS_P1;PMS_P2;Temp;Humidity;BMP_temperature;BMP_pressure;BME280_temperature;BME280_humidity;BME280_pressure;Samples;Min_cycle;Max_cycle;Signal;HPM_P1;HPM_P2
2024/01/24 00:01:38;;;;;;;0.00;0.00;;;11.70;99.90;;;;;;5061623;28;20602;-57
2024/01/24 00:04:04;;;;;;;0.00;0.00;;;11.70;99.90;;;;;;5070921;28;21194;-57
2024/01/24 00:06:29;;;;;;;0.00;0.00;;;11.70;99.90;;;;;;5043856;28;20028;-56
2024/01/24 00:08:55;;;;;;;0.00;0.00;;;11.80;99.90;;;;;;5061240;28;20103;-58
2024/01/24 00:11:20;;;;;;;0.00;0.00;;;11.80;99.90;;;;;;5065089;28;20053;-57
2024/01/24 00:13:46;;;;;;;0.00;0.00;;;11.90;99.90;;;;;;5062499;28;20040;-57
2024/01/24 00:16:12;;;;;;;0.00;0.00;;;11.90;99.90;;;;;;5057788;28;20139;-56
2024/01/24 00:18:38;;;;;;;0.00;0.00;;;11.90;99.90;;;;;;5064782;28;20024;-57
2024/01/24 00:21:03;;;;;;;0.00;0.00;;;11.80;99.90;;;;;;5059026;28;20028;-57
2024/01/24 00:23:29;;;;;;;0.00;0.00;;;11.90;99.90;;;;;;5060661;28;20475;-57
2024/01/24 00:25:54;;;;;;;0.00;0.00;;;12.00;99.90;;;;;;5061851;28;20032;-56
2024/01/24 00:28:21;;;;;;;0.00;0.00;;;12.00;99.90;;;;;;5061082;28;20024;-57
2024/01/24 00:30:47;;;;;;;0.00;0.00;;;11.90;99.90;;;;;;5048701;28;20047;-57
2024/01/24 00:33:15;;;;;;;0.00;0.00;;;12.00;99.90;;;;;;5056418;28;20174;-58
2024/01/24 00:35:41;;;;;;;0.00;0.00;;;12.00;99.90;;;;;;5059790;28;20036;-56
2024/01/24 00:38:07;;;;;;;0.00;0.00;;;;;;;;;;5062789;28;20028;-57
2024/01/24 00:40:32;;;;;;;0.00;0.00;;;12.00;99.90;;;;;;5065395;28;20071;-57
2024/01/24 00:43:00;;;;;;;0.00;0.00;;;;;;;;;;5041124;28;20384;-58
2024/01/24 00:45:25;;;;;;;0.00;0.00;;;12.20;99.90;;;;;;5062425;28;20428;-59
2024/01/24 00:47:51;;;;;;;0.00;0.00;;;12.20;99.90;;;;;;5061302;28;20085;-58
2024/01/24 00:50:16;;;;;;;0.00;0.00;;;12.10;99.90;;;;;;5061448;28;20032;-57
2024/01/24 00:52:44;;;;;;;0.00;0.00;;;12.20;99.90;;;;;;5053515;28;20034;-58
2024/01/24 00:55:10;;;;;;;0.00;0.00;;;12.20;99.90;;;;;;5054537;28;20652;-57
2024/01/24 00:57:35;;;;;;;0.00;0.00;;;12.20;99.90;;;;;;5064062;28;20028;-58
2024/01/24 01:00:01;;;;;;;0.00;0.00;;;12.20;99.90;;;;;;5061121;28;20460;-58
2024/01/24 01:02:28;;;;;;;0.00;0.00;;;12.30;99.90;;;;;;5061729;28;20072;-57
2024/01/24 01:04:53;;;;;;;0.00;0.00;;;12.30;99.90;;;;;;5061943;28;20103;-58
2024/01/24 01:07:20;;;;;;;0.00;0.00;;;;;;;;;;5055474;28;20134;-57
2024/01/24 01:09:47;;;;;;;0.00;0.00;;;;;;;;;;5057699;28;20415;-57
2024/01/24 01:12:13;;;;;;;0.00;0.00;;;12.30;99.90;;;;;;5058353;28;20462;-57
2024/01/24 01:14:38;;;;;;;0.00;0.00;;;12.30;99.90;;;;;;5061272;28;20048;-57
2024/01/24 01:17:05;;;;;;;0.00;0.00;;;;;;;;;;5043678;28;20672;-56
2024/01/24 01:19:32;;;;;;;0.00;0.00;;;;;;;;;;5061806;28;20086;-57
2024/01/24 01:21:57;;;;;;;0.00;0.00;;;12.30;99.90;;;;;;5062034;28;20063;-56
2024/01/24 01:24:23;;;;;;;0.00;0.00;;;12.40;99.90;;;;;;5061040;28;20325;-55
2024/01/24 01:26:48;;;;;;;0.00;0.00;;;12.50;99.90;;;;;;5059332;28;20109;-56
2024/01/24 01:29:14;;;;;;;0.00;0.00;;;12.60;99.90;;;;;;5063225;28;20463;-56
2024/01/24 01:31:40;;;;;;;0.00;0.00;;;;;;;;;;5044282;28;20582;-56
2024/01/24 01:34:07;;;;;;;0.00;0.00;;;;;;;;;;5045619;28;20037;-56
2024/01/24 01:36:34;;;;;;;0.00;0.00;;;;;;;;;;5065900;28;20033;-56
2024/01/24 01:39:01;;;;;;;0.00;0.00;;;;;;;;;;5066889;28;20033;-56
2024/01/24 01:41:28;;;;;;;0.00;0.00;;;;;;;;;;5067644;28;20063;-55
2024/01/24 01:43:53;;;;;;;0.00;0.00;;;12.40;99.90;;;;;;5066225;28;20404;-55
2024/01/24 01:46:21;;;;;;;0.00;0.00;;;12.70;99.90;;;;;;5063099;28;20036;-56
2024/01/24 01:48:49;;;;;;;0.00;0.00;;;;;;;;;;5068643;28;20463;-55
2024/01/24 01:51:17;;;;;;;0.00;0.00;;;;;;;;;;5061402;28;20445;-56
2024/01/24 01:53:45;;;;;;;0.00;0.00;;;12.50;99.90;;;;;;5062571;28;20101;-56
2024/01/24 01:56:12;;;;;;;0.00;0.00;;;12.70;99.90;;;;;;5065856;28;20089;-56
2024/01/24 01:58:39;;;;;;;0.00;0.00;;;12.80;99.90;;;;;;5062645;28;20334;-55
2024/01/24 02:01:06;;;;;;;0.00;0.00;;;12.80;99.90;;;;;;5066276;28;20056;-57
2024/01/24 02:03:32;;;;;;;0.00;0.00;;;12.80;99.90;;;;;;5060994;28;20547;-55
2024/01/24 02:05:57;;;;;;;0.00;0.00;;;12.80;99.90;;;;;;5064620;28;20114;-55
2024/01/24 02:08:23;;;;;;;0.00;0.00;;;12.90;99.90;;;;;;5067932;28;20391;-56
2024/01/24 02:10:49;;;;;;;0.00;0.00;;;12.90;99.90;;;;;;5066331;28;20084;-56
2024/01/24 02:13:15;;;;;;;0.00;0.00;;;12.90;99.90;;;;;;5063944;28;20111;-57
2024/01/24 02:15:40;;;;;;;0.00;0.00;;;12.90;99.90;;;;;;5062173;28;20806;-56
2024/01/24 02:18:06;;;;;;;0.00;0.00;;;12.80;99.90;;;;;;5068092;28;20589;-57
2024/01/24 02:20:32;;;;;;;0.00;0.00;;;12.90;99.90;;;;;;5065914;28;20116;-56
2024/01/24 02:22:58;;;;;;;0.00;0.00;;;12.90;99.90;;;;;;5044541;28;20043;-55
2024/01/24 02:25:24;;;;;;;0.00;0.00;;;12.90;99.90;;;;;;5064990;28;20024;-55
2024/01/24 02:27:49;;;;;;;0.00;0.00;;;12.90;99.90;;;;;;5067930;28;20464;-56
2024/01/24 02:30:15;;;;;;;0.00;0.00;;;13.00;99.90;;;;;;5064077;28;20032;-57
2024/01/24 02:32:40;;;;;;;0.00;0.00;;;13.00;99.90;;;;;;5069004;28;20044;-55
2024/01/24 02:35:06;;;;;;;0.00;0.00;;;13.00;99.90;;;;;;5064319;28;20471;-54
2024/01/24 02:37:32;;;;;;;0.00;0.00;;;13.00;99.90;;;;;;5065608;28;20039;-55
2024/01/24 02:39:58;;;;;;;0.00;0.00;;;12.90;99.90;;;;;;5068818;28;20044;-56
2024/01/24 02:42:23;;;;;;;0.00;0.00;;;12.90;99.90;;;;;;5049583;28;20020;-56
2024/01/24 02:44:49;;;;;;;0.00;0.00;;;12.90;99.90;;;;;;5068170;28;20024;-57
2024/01/24 02:47:15;;;;;;;0.00;0.00;;;12.90;99.90;;;;;;5068233;28;20028;-57
2024/01/24 02:49:41;;;;;;;0.00;0.00;;;;;;;;;;5067066;28;20476;-57
2024/01/24 02:52:07;;;;;;;0.00;0.00;;;;;;;;;;5066659;28;20063;-56
2024/01/24 02:54:36;;;;;;;0.00;0.00;;;;;;;;;;5064623;28;20329;-57
2024/01/24 02:57:02;;;;;;;0.00;0.00;;;;;;;;;;5064034;28;20037;-57
2024/01/24 02:59:28;;;;;;;0.00;0.00;;;;;;;;;;5068673;28;20380;-56
2024/01/24 03:01:54;;;;;;;0.00;0.00;;;;;;;;;;5064681;28;20055;-56
2024/01/24 03:04:20;;;;;;;0.00;0.00;;;;;;;;;;5067856;28;20308;-56
2024/01/24 03:06:46;;;;;;;0.00;0.00;;;;;;;;;;5060203;28;20032;-56
2024/01/24 03:09:13;;;;;;;0.00;0.00;;;;;;;;;;5048902;28;20032;-57
2024/01/24 03:11:39;;;;;;;0.00;0.00;;;;;;;;;;5068054;28;20033;-56
2024/01/24 03:14:05;;;;;;;0.00;0.00;;;;;;;;;;5065263;28;21340;-57
2024/01/24 03:16:31;;;;;;;0.00;0.00;;;;;;;;;;5062820;28;20041;-57
2024/01/24 03:18:57;;;;;;;0.00;0.00;;;;;;;;;;5066379;28;20028;-57
2024/01/24 03:21:23;;;;;;;0.00;0.00;;;;;;;;;;5047215;28;20031;-55
2024/01/24 03:23:49;;;;;;;0.00;0.00;;;;;;;;;;5066444;28;20043;-57
2024/01/24 03:26:15;;;;;;;0.00;0.00;;;;;;;;;;5066233;28;20035;-57
2024/01/24 03:28:42;;;;;;;0.00;0.00;;;;;;;;;;5066283;28;20031;-57
2024/01/24 03:31:09;;;;;;;0.00;0.00;;;;;;;;;;5068362;28;20242;-57
2024/01/24 03:33:36;;;;;;;0.00;0.00;;;;;;;;;;5067264;28;20060;-56
2024/01/24 03:36:02;;;;;;;0.00;0.00;;;;;;;;;;5061877;28;20086;-56
2024/01/24 03:38:29;;;;;;;0.00;0.00;;;;;;;;;;5064425;28;20032;-57
2024/01/24 03:40:55;;;;;;;0.00;0.00;;;;;;;;;;5064460;28;20068;-57
2024/01/24 03:43:21;;;;;;;0.00;0.00;;;;;;;;;;5061533;28;20099;-57
2024/01/24 03:45:48;;;;;;;0.00;0.00;;;;;;;;;;5068983;28;20538;-57
2024/01/24 03:48:14;;;;;;;0.00;0.00;;;;;;;;;;5070986;28;20034;-57
2024/01/24 03:50:40;;;;;;;0.00;0.00;;;;;;;;;;5061825;28;20111;-57
2024/01/24 03:53:06;;;;;;;0.00;0.00;;;;;;;;;;5067966;28;20021;-57
2024/01/24 03:55:32;;;;;;;0.00;0.00;;;;;;;;;;5066043;28;20052;-57
2024/01/24 03:57:58;;;;;;;0.00;0.00;;;;;;;;;;5067012;28;20388;-57
2024/01/24 04:00:24;;;;;;;0.00;0.00;;;;;;;;;;5066129;28;20028;-58
2024/01/24 04:02:51;;;;;;;0.00;0.00;;;;;;;;;;5068208;28;20028;-58
2024/01/24 04:05:16;;;;;;;0.00;0.00;;;;;;;;;;5066400;28;20021;-57
2024/01/24 04:07:43;;;;;;;0.00;0.00;;;;;;;;;;5065055;28;20028;-57
2024/01/24 04:10:09;;;;;;;0.00;0.00;;;;;;;;;;5063149;28;20094;-56
2024/01/24 04:12:35;;;;;;;0.00;0.00;;;;;;;;;;5063889;28;20095;-56
2024/01/24 04:15:01;;;;;;;0.00;0.00;;;;;;;;;;5062845;28;20123;-56
2024/01/24 04:17:27;;;;;;;0.00;0.00;;;;;;;;;;5061689;28;20024;-57
2024/01/24 04:19:53;;;;;;;0.00;0.00;;;;;;;;;;5063291;28;20036;-57
2024/01/24 04:22:19;;;;;;;0.00;0.00;;;;;;;;;;5063426;28;20024;-58
2024/01/24 04:24:45;;;;;;;0.00;0.00;;;;;;;;;;5060440;28;20086;-56
2024/01/24 04:27:11;;;;;;;0.00;0.00;;;;;;;;;;5062814;28;20356;-57
2024/01/24 04:29:37;;;;;;;0.00;0.00;;;;;;;;;;5060158;28;20032;-57
2024/01/24 04:32:04;;;;;;;0.00;0.00;;;;;;;;;;5068307;28;20064;-58
2024/01/24 04:34:30;;;;;;;0.00;0.00;;;;;;;;;;5063333;28;20510;-57
2024/01/24 04:36:56;;;;;;;0.00;0.00;;;;;;;;;;5063694;28;20044;-57
2024/01/24 04:39:22;;;;;;;0.00;0.00;;;;;;;;;;5061689;28;20031;-58
2024/01/24 04:41:48;;;;;;;0.00;0.00;;;;;;;;;;5061302;28;20037;-58
2024/01/24 04:44:15;;;;;;;0.00;0.00;;;;;;;;;;5064451;28;20039;-56
2024/01/24 04:46:41;;;;;;;0.00;0.00;;;;;;;;;;5064728;28;20012;-58
2024/01/24 04:49:08;;;;;;;0.00;0.00;;;;;;;;;;5061246;28;20044;-58
2024/01/24 04:51:34;;;;;;;0.00;0.00;;;;;;;;;;5063051;28;20040;-58
2024/01/24 04:54:01;;;;;;;0.00;0.00;;;;;;;;;;5064316;28;20488;-57
2024/01/24 04:56:27;;;;;;;0.00;0.00;;;;;;;;;;5066818;28;20060;-56
2024/01/24 04:58:53;;;;;;;0.00;0.00;;;;;;;;;;5061316;28;20111;-56
2024/01/24 05:01:18;;;;;;;0.00;0.00;;;;;;;;;;5058500;28;20574;-56
2024/01/24 05:03:45;;;;;;;0.00;0.00;;;;;;;;;;5059086;28;20037;-57
2024/01/24 05:06:11;;;;;;;0.00;0.00;;;;;;;;;;5062638;28;20162;-57
2024/01/24 05:08:37;;;;;;;0.00;0.00;;;;;;;;;;5061813;28;20039;-58
2024/01/24 05:11:04;;;;;;;0.00;0.00;;;;;;;;;;5067387;28;20103;-57
2024/01/24 05:13:30;;;;;;;0.00;0.00;;;;;;;;;;5068390;28;20431;-56
2024/01/24 05:15:56;;;;;;;0.00;0.00;;;;;;;;;;5065490;28;20338;-57
2024/01/24 05:18:22;;;;;;;0.00;0.00;;;;;;;;;;5070271;28;20077;-57
2024/01/24 05:20:48;;;;;;;0.00;0.00;;;;;;;;;;5072917;28;20193;-57
2024/01/24 05:23:14;;;;;;;0.00;0.00;;;;;;;;;;5063483;28;20024;-56
2024/01/24 05:25:42;;;;;;;0.00;0.00;;;;;;;;;;5067871;28;20031;-58
2024/01/24 05:28:09;;;;;;;0.00;0.00;;;;;;;;;;5069608;28;20639;-57
2024/01/24 05:30:35;;;;;;;0.00;0.00;;;;;;;;;;5066150;28;20024;-56
2024/01/24 05:33:01;;;;;;;0.00;0.00;;;;;;;;;;5065967;28;20093;-57
2024/01/24 05:35:27;;;;;;;0.00;0.00;;;;;;;;;;5065177;28;20032;-57
2024/01/24 05:37:53;;;;;;;0.00;0.00;;;;;;;;;;5066925;28;20021;-57
2024/01/24 05:40:18;;;;;;;0.00;0.00;;;;;;;;;;5062462;28;20479;-56
2024/01/24 05:42:44;;;;;;;0.00;0.00;;;;;;;;;;5053645;28;20448;-58
2024/01/24 05:45:11;;;;;;;0.00;0.00;;;;;;;;;;5060134;28;20081;-58
2024/01/24 05:47:37;;;;;;;0.00;0.00;;;;;;;;;;5062040;28;20021;-59
2024/01/24 05:50:03;;;;;;;0.00;0.00;;;;;;;;;;5059080;28;20033;-57
2024/01/24 05:52:29;;;;;;;0.00;0.00;;;;;;;;;;5057926;28;20025;-58
2024/01/24 05:54:55;;;;;;;0.00;0.00;;;;;;;;;;5059629;28;20518;-57
2024/01/24 05:57:24;;;;;;;0.00;0.00;;;;;;;;;;5058856;28;20054;-58
2024/01/24 05:59:50;;;;;;;0.00;0.00;;;;;;;;;;5061181;28;20028;-57
2024/01/24 06:02:16;;;;;;;0.00;0.00;;;;;;;;;;5059481;28;20048;-57
2024/01/24 06:04:42;;;;;;;0.00;0.00;;;;;;;;;;5064049;28;20024;-58
2024/01/24 06:07:09;;;;;;;0.00;0.00;;;;;;;;;;5057171;28;20064;-58
2024/01/24 06:09:35;;;;;;;0.00;0.00;;;;;;;;;;5062592;28;20020;-57
2024/01/24 06:12:01;;;;;;;0.00;0.00;;;;;;;;;;5057535;28;20373;-58
2024/01/24 06:14:27;;;;;;;0.00;0.00;;;;;;;;;;5056227;28;20047;-57
2024/01/24 06:16:53;;;;;;;0.00;0.00;;;;;;;;;;5063797;28;20028;-58
2024/01/24 06:19:19;;;;;;;0.00;0.00;;;;;;;;;;5062888;28;20488;-58
2024/01/24 06:21:45;;;;;;;0.00;0.00;;;;;;;;;;5062708;28;20115;-57
2024/01/24 06:24:11;;;;;;;0.00;0.00;;;;;;;;;;5055526;28;20039;-57
2024/01/24 06:26:38;;;;;;;0.00;0.00;;;;;;;;;;5062100;28;20047;-57
2024/01/24 06:29:04;;;;;;;0.00;0.00;;;;;;;;;;5060118;28;20023;-57
2024/01/24 06:31:30;;;;;;;0.00;0.00;;;;;;;;;;5062775;28;20072;-58
2024/01/24 06:33:56;;;;;;;0.00;0.00;;;;;;;;;;5070115;28;20036;-58
2024/01/24 06:36:22;;;;;;;0.00;0.00;;;;;;;;;;5059056;28;20044;-58
2024/01/24 06:38:48;;;;;;;0.00;0.00;;;;;;;;;;5069320;28;20111;-59
2024/01/24 06:41:14;;;;;;;0.00;0.00;;;;;;;;;;5055632;28;20036;-58
2024/01/24 06:43:42;;;;;;;0.00;0.00;;;;;;;;;;5069735;28;20033;-58
2024/01/24 06:46:08;;;;;;;0.00;0.00;;;;;;;;;;5066521;28;20459;-59
2024/01/24 06:48:34;;;;;;;0.00;0.00;;;;;;;;;;5065611;28;20024;-58
2024/01/24 06:51:00;;;;;;;0.00;0.00;;;;;;;;;;5065465;28;20024;-56
2024/01/24 06:53:26;;;;;;;0.00;0.00;;;;;;;;;;5067012;28;20033;-58
2024/01/24 06:55:52;;;;;;;0.00;0.00;;;;;;;;;;5064886;28;20048;-58
2024/01/24 06:58:18;;;;;;;0.00;0.00;;;;;;;;;;5066615;28;20029;-58
2024/01/24 07:00:44;;;;;;;0.00;0.00;;;;;;;;;;5069103;28;20064;-57
2024/01/24 07:03:10;;;;;;;0.00;0.00;;;;;;;;;;5067222;28;20044;-57
2024/01/24 07:05:36;;;;;;;0.00;0.00;;;;;;;;;;5065222;28;20032;-59
2024/01/24 07:08:02;;;;;;;0.00;0.00;;;;;;;;;;5069566;28;20043;-57
2024/01/24 07:10:28;;;;;;;0.00;0.00;;;;;;;;;;5069689;28;20039;-57
2024/01/24 07:12:55;;;;;;;0.00;0.00;;;;;;;;;;5063606;28;20040;-58
2024/01/24 07:15:21;;;;;;;0.00;0.00;;;;;;;;;;5065277;28;20094;-58
2024/01/24 07:17:47;;;;;;;0.00;0.00;;;;;;;;;;5067383;28;20036;-57
2024/01/24 07:20:15;;;;;;;0.00;0.00;;;;;;;;;;5071361;28;20051;-58
2024/01/24 07:22:41;;;;;;;0.00;0.00;;;;;;;;;;5068975;28;20411;-58
2024/01/24 07:25:08;;;;;;;0.00;0.00;;;;;;;;;;5068019;28;20024;-57
2024/01/24 07:27:34;;;;;;;0.00;0.00;;;;;;;;;;5064521;28;20959;-57
2024/01/24 07:30:03;;;;;;;0.00;0.00;;;;;;;;;;5067225;28;20047;-57
2024/01/24 07:32:29;;;;;;;0.00;0.00;;;;;;;;;;5067219;28;21115;-57
2024/01/24 07:34:55;;;;;;;0.00;0.00;;;11.70;99.90;;;;;;5066950;28;20519;-57
2024/01/24 07:37:20;;;;;;;0.00;0.00;;;11.90;99.90;;;;;;5070727;28;20542;-58
2024/01/24 07:39:46;;;;;;;0.00;0.00;;;11.70;99.90;;;;;;5061740;28;20495;-57
2024/01/24 07:42:11;;;;;;;0.00;0.00;;;11.70;99.90;;;;;;5070689;28;20027;-57
2024/01/24 07:44:37;;;;;;;0.00;0.00;;;11.60;99.90;;;;;;5063187;28;20024;-58
2024/01/24 07:47:04;;;;;;;0.00;0.00;;;11.60;99.90;;;;;;5065158;28;20071;-56
2024/01/24 07:49:30;;;;;;;0.00;0.00;;;11.60;99.90;;;;;;5057353;28;20373;-56
2024/01/24 07:51:55;;;;;;;0.00;0.00;;;11.60;99.90;;;;;;5068314;28;20384;-57
2024/01/24 07:54:21;;;;;;;0.00;0.00;;;;;;;;;;5073979;28;20031;-57
2024/01/24 07:56:48;;;;;;;0.00;0.00;;;;;;;;;;5044376;28;20082;-57
2024/01/24 07:59:16;;;;;;;0.00;0.00;;;11.60;99.90;;;;;;5068034;28;20052;-58
2024/01/24 08:01:45;;;;;;;0.00;0.00;;;11.80;99.90;;;;;;5066531;28;20587;-58
2024/01/24 08:04:10;;;;;;;0.00;0.00;;;11.70;99.90;;;;;;5062998;28;20025;-57
2024/01/24 08:06:36;;;;;;;0.00;0.00;;;11.70;99.90;;;;;;5059458;28;20441;-57
2024/01/24 08:09:01;;;;;;;0.00;0.00;;;11.60;99.90;;;;;;5067598;28;20024;-57
2024/01/24 08:11:27;;;;;;;0.00;0.00;;;11.60;99.90;;;;;;5063396;28;20028;-56
2024/01/24 08:13:52;;;;;;;0.00;0.00;;;11.60;99.90;;;;;;5062894;28;20038;-56
2024/01/24 08:16:18;;;;;;;0.00;0.00;;;11.60;99.90;;;;;;5062863;28;20029;-57
2024/01/24 08:18:45;;;;;;;0.00;0.00;;;11.80;99.90;;;;;;5063038;28;20028;-56
2024/01/24 08:21:10;;;;;;;0.00;0.00;;;11.60;99.90;;;;;;5046166;28;20036;-56
2024/01/24 08:23:36;;;;;;;0.00;0.00;;;11.60;99.90;;;;;;5062307;28;20369;-57
2024/01/24 08:26:01;;;;;;;0.00;0.00;;;11.60;99.90;;;;;;5061396;28;20032;-57
2024/01/24 08:28:27;;;;;;;0.00;0.00;;;11.60;99.90;;;;;;5059451;28;20739;-56
2024/01/24 08:30:52;;;;;;;0.00;0.00;;;11.70;99.90;;;;;;5066998;28;20059;-56
2024/01/24 08:33:18;;;;;;;0.00;0.00;;;11.70;99.90;;;;;;5063036;28;20035;-58
2024/01/24 08:35:43;;;;;;;0.00;0.00;;;11.70;99.90;;;;;;5059206;28;20419;-57
2024/01/24 08:38:09;;;;;;;0.00;0.00;;;11.80;99.90;;;;;;5061829;28;20036;-57
2024/01/24 08:40:35;;;;;;;0.00;0.00;;;11.80;99.90;;;;;;5052493;28;20059;-57
2024/01/24 08:43:00;;;;;;;0.00;0.00;;;11.80;99.90;;;;;;5060005;28;20052;-57
2024/01/24 08:45:26;;;;;;;0.00;0.00;;;11.80;99.90;;;;;;5066803;28;20099;-57
2024/01/24 08:47:52;;;;;;;0.00;0.00;;;11.80;99.90;;;;;;5066606;28;20535;-57
2024/01/24 08:50:17;;;;;;;0.00;0.00;;;11.80;99.90;;;;;;5061482;28;20052;-56
2024/01/24 08:52:43;;;;;;;0.00;0.00;;;11.70;99.90;;;;;;5060937;28;20119;-56
2024/01/24 08:55:11;;;;;;;0.00;0.00;;;11.80;99.90;;;;;;5063503;28;20064;-57
2024/01/24 08:57:37;;;;;;;0.00;0.00;;;11.80;99.90;;;;;;5062206;28;20024;-57
2024/01/24 09:00:03;;;;;;;0.00;0.00;;;11.70;99.90;;;;;;5060828;28;20024;-57
2024/01/24 09:02:28;;;;;;;0.00;0.00;;;11.70;99.90;;;;;;5060961;28;20093;-57
2024/01/24 09:04:54;;;;;;;0.00;0.00;;;11.70;99.90;;;;;;5064810;28;20350;-57
2024/01/24 09:07:20;;;;;;;0.00;0.00;;;11.80;99.90;;;;;;5067059;28;20746;-58
2024/01/24 09:09:48;;;;;;;0.00;0.00;;;11.70;99.90;;;;;;5070642;28;20032;-57
2024/01/24 09:12:14;;;;;;;0.00;0.00;;;11.70;99.90;;;;;;5068022;28;20425;-57
2024/01/24 09:14:40;;;;;;;0.00;0.00;;;11.70;99.90;;;;;;5042926;28;20036;-57
2024/01/24 09:17:07;;;;;;;0.00;0.00;;;11.70;99.90;;;;;;5045991;28;20068;-56
2024/01/24 09:19:33;;;;;;;0.00;0.00;;;11.70;99.90;;;;;;5064086;28;20036;-58
2024/01/24 09:21:59;;;;;;;0.00;0.00;;;11.70;99.90;;;;;;5065905;28;20025;-58
2024/01/24 09:24:25;;;;;;;0.00;0.00;;;11.70;99.90;;;;;;5060272;28;20035;-57
2024/01/24 09:26:50;;;;;;;0.00;0.00;;;11.60;99.90;;;;;;5061005;28;20029;-58
2024/01/24 09:29:16;;;;;;;0.00;0.00;;;11.70;99.90;;;;;;5061523;28;20029;-58
2024/01/24 09:31:45;;;;;;;0.00;0.00;;;11.70;99.90;;;;;;5064059;28;20036;-57
2024/01/24 09:34:11;;;;;;;0.00;0.00;;;11.70;99.90;;;;;;5057136;28;20402;-57
2024/01/24 09:36:37;;;;;;;0.00;0.00;;;11.70;99.90;;;;;;5062801;28;20526;-57
2024/01/24 09:39:03;;;;;;;0.00;0.00;;;11.70;99.90;;;;;;5063034;28;20227;-57
2024/01/24 09:41:37;;;;;;;0.00;0.00;;;11.70;99.90;;;;;;5061812;28;20063;-58
2024/01/24 09:44:04;;;;;;;0.00;0.00;;;11.80;99.90;;;;;;5060527;28;20056;-57
2024/01/24 09:46:31;;;;;;;0.00;0.00;;;11.80;99.90;;;;;;5057812;28;20024;-57
2024/01/24 09:48:57;;;;;;;0.00;0.00;;;11.80;99.90;;;;;;5045086;28;20020;-57
2024/01/24 09:51:22;;;;;;;0.00;0.00;;;11.80;99.90;;;;;;5065377;28;20525;-58
2024/01/24 09:53:49;;;;;;;0.00;0.00;;;11.90;99.90;;;;;;5061753;28;20033;-58
2024/01/24 09:56:16;;;;;;;0.00;0.00;;;11.90;99.90;;;;;;5060844;28;20716;-56
2024/01/24 09:58:42;;;;;;;0.00;0.00;;;11.80;99.90;;;;;;5065658;28;20024;-57
2024/01/24 10:01:12;;;;;;;0.00;0.00;;;11.80;99.90;;;;;;5064823;28;20025;-57
2024/01/24 10:03:38;;;;;;;0.00;0.00;;;11.80;99.90;;;;;;5065396;28;20044;-57
2024/01/24 10:06:10;;;;;;;0.00;0.00;;;11.80;99.90;;;;;;5065124;28;20085;-58
2024/01/24 10:08:36;;;;;;;0.00;0.00;;;11.80;99.90;;;;;;5061903;28;20390;-58
2024/01/24 10:11:01;;;;;;;0.00;0.00;;;11.70;99.90;;;;;;5062070;28;20082;-57
2024/01/24 10:13:27;;;;;;;0.00;0.00;;;11.80;99.90;;;;;;5067570;28;20353;-57
2024/01/24 10:15:55;;;;;;;0.00;0.00;;;11.80;99.90;;;;;;5067882;28;20040;-58
2024/01/24 10:18:23;;;;;;;0.00;0.00;;;11.80;99.90;;;;;;5068225;28;20020;-58
2024/01/24 10:20:48;;;;;;;0.00;0.00;;;11.80;99.90;;;;;;5068717;28;20028;-58
2024/01/24 10:23:15;;;;;;;0.00;0.00;;;11.80;99.90;;;;;;5066003;28;20480;-58
2024/01/24 10:25:41;;;;;;;0.00;0.00;;;11.80;99.90;;;;;;5065263;28;20093;-58
2024/01/24 10:28:13;;;;;;;0.00;0.00;;;11.80;99.90;;;;;;5063573;28;20029;-57
2024/01/24 10:30:42;;;;;;;0.00;0.00;;;11.80;99.90;;;;;;5061672;28;20506;-57
2024/01/24 10:33:12;;;;;;;0.00;0.00;;;11.80;99.90;;;;;;5064606;28;20772;-58
2024/01/24 10:35:47;;;;;;;0.00;0.00;;;11.80;99.90;;;;;;5065934;28;20426;-58
2024/01/24 10:38:15;;;;;;;0.00;0.00;;;11.80;99.90;;;;;;5061473;28;20550;-58
2024/01/24 10:40:41;;;;;;;0.00;0.00;;;11.90;99.90;;;;;;5066191;28;20063;-58
2024/01/24 10:43:14;;;;;;;0.00;0.00;;;11.90;99.90;;;;;;5045350;28;20028;-58
2024/01/24 10:45:44;;;;;;;0.00;0.00;;;11.90;99.90;;;;;;5066510;28;20034;-58
2024/01/24 10:48:11;;;;;;;0.00;0.00;;;12.00;99.90;;;;;;5068531;28;20129;-58
2024/01/24 10:50:39;;;;;;;0.00;0.00;;;12.00;99.90;;;;;;5061080;28;20039;-57
2024/01/24 10:53:05;;;;;;;0.00;0.00;;;12.00;99.90;;;;;;5065679;28;20028;-56
2024/01/24 10:55:33;;;;;;;0.00;0.00;;;11.90;99.90;;;;;;5067845;28;20036;-57
2024/01/24 10:57:58;;;;;;;0.00;0.00;;;12.00;99.90;;;;;;5067316;28;20020;-57
2024/01/24 11:00:25;;;;;;;0.00;0.00;;;12.00;99.90;;;;;;5068878;28;20055;-56
2024/01/24 11:02:54;;;;;;;0.00;0.00;;;12.00;99.90;;;;;;5065567;28;20167;-58
2024/01/24 11:05:41;;;;;;;0.00;0.00;;;11.90;99.90;;;;;;5060955;28;20162;-58
2024/01/24 11:08:26;;;;;;;0.00;0.00;;;12.00;99.90;;;;;;5063914;28;20040;-57
2024/01/24 11:10:55;;;;;;;0.00;0.00;;;12.00;99.90;;;;;;5063981;28;20029;-58
2024/01/24 11:13:23;;;;;;;0.00;0.00;;;12.00;99.90;;;;;;5066442;28;20031;-58
2024/01/24 11:15:49;;;;;;;0.00;0.00;;;12.00;99.90;;;;;;5061044;28;20055;-58
2024/01/24 11:18:21;;;;;;;0.00;0.00;;;12.00;99.90;;;;;;5064045;28;20040;-57
2024/01/24 11:20:57;;;;;;;0.00;0.00;;;11.90;99.90;;;;;;5067829;28;20036;-58
2024/01/24 11:23:46;;;;;;;0.00;0.00;;;11.90;99.90;;;;;;5062056;28;20115;-58
2024/01/24 11:26:17;;;;;;;0.00;0.00;;;11.80;99.90;;;;;;5060658;28;20515;-58
2024/01/24 11:28:44;;;;;;;0.00;0.00;;;11.90;99.90;;;;;;5063636;28;20319;-57
2024/01/24 11:31:10;;;;;;;0.00;0.00;;;11.80;99.90;;;;;;5062645;28;20368;-57
2024/01/24 11:33:36;;;;;;;0.00;0.00;;;11.80;99.90;;;;;;5063100;28;20012;-58
2024/01/24 11:36:05;;;;;;;0.00;0.00;;;11.90;99.90;;;;;;5065026;28;20032;-57
2024/01/24 11:38:35;;;;;;;0.00;0.00;;;11.80;99.90;;;;;;5066918;28;20024;-58
2024/01/24 11:41:10;;;;;;;0.00;0.00;;;11.90;99.90;;;;;;5063234;28;20029;-57
2024/01/24 11:43:35;;;;;;;0.00;0.00;;;11.90;99.90;;;;;;5066142;28;20121;-58
2024/01/24 11:46:06;;;;;;;0.00;0.00;;;11.90;99.90;;;;;;5064825;28;20024;-58
2024/01/24 11:48:34;;;;;;;0.00;0.00;;;11.90;99.90;;;;;;5067944;28;20502;-58
2024/01/24 11:51:01;;;;;;;0.00;0.00;;;11.90;99.90;;;;;;5062609;28;20032;-57
2024/01/24 11:53:28;;;;;;;0.00;0.00;;;11.90;99.90;;;;;;5067384;28;20025;-57
2024/01/24 11:55:56;;;;;;;0.00;0.00;;;11.90;99.90;;;;;;5068250;28;20086;-58
2024/01/24 11:58:26;;;;;;;0.00;0.00;;;11.90;99.90;;;;;;5062130;28;20028;-58
2024/01/24 12:00:55;;;;;;;0.00;0.00;;;11.80;99.90;;;;;;5063866;28;20471;-58
2024/01/24 12:03:21;;;;;;;0.00;0.00;;;11.90;99.90;;;;;;5064663;28;20009;-58
2024/01/24 12:05:47;;;;;;;0.00;0.00;;;11.90;99.90;;;;;;5064267;28;20017;-57
2024/01/24 12:08:13;;;;;;;0.00;0.00;;;11.90;99.90;;;;;;5064186;28;20120;-58
2024/01/24 12:10:39;;;;;;;0.00;0.00;;;12.00;99.90;;;;;;5067916;28;20457;-58
2024/01/24 12:13:06;;;;;;;0.00;0.00;;;11.90;99.90;;;;;;5065144;28;20111;-57
2024/01/24 12:15:33;;;;;;;0.00;0.00;;;11.90;99.90;;;;;;5063864;28;20047;-58
2024/01/24 12:18:11;;;;;;;0.00;0.00;;;11.90;99.90;;;;;;5066527;28;20514;-58
2024/01/24 12:20:37;;;;;;;0.00;0.00;;;11.90;99.90;;;;;;5061947;28;20074;-58
2024/01/24 12:23:04;;;;;;;0.00;0.00;;;11.90;99.90;;;;;;5061496;28;20135;-57
2024/01/24 12:25:30;;;;;;;0.00;0.00;;;11.90;99.90;;;;;;5061436;28;20083;-57
2024/01/24 12:27:57;;;;;;;0.00;0.00;;;11.90;99.90;;;;;;5064807;28;20032;-58
2024/01/24 12:30:25;;;;;;;0.00;0.00;;;12.00;99.90;;;;;;5058440;28;20094;-59
2024/01/24 12:32:55;;;;;;;0.00;0.00;;;12.10;99.90;;;;;;5062440;28;20424;-57
2024/01/24 12:35:20;;;;;;;0.00;0.00;;;12.00;99.90;;;;;;5063083;28;20052;-57
2024/01/24 12:37:46;;;;;;;0.00;0.00;;;12.00;99.90;;;;;;5064777;28;20043;-58
2024/01/24 12:40:12;;;;;;;0.00;0.00;;;12.00;99.90;;;;;;5066128;28;20111;-57
2024/01/24 12:42:40;;;;;;;0.00;0.00;;;12.00;99.90;;;;;;5062443;28;20029;-57
2024/01/24 12:45:13;;;;;;;0.00;0.00;;;12.00;99.90;;;;;;5061260;28;20463;-57
2024/01/24 12:47:41;;;;;;;0.00;0.00;;;11.90;99.90;;;;;;5065114;28;20024;-56
2024/01/24 12:50:10;;;;;;;0.00;0.00;;;11.90;99.90;;;;;;5047007;28;20024;-56
2024/01/24 12:52:41;;;;;;;0.00;0.00;;;11.90;99.90;;;;;;5061861;28;20032;-56
2024/01/24 12:55:07;;;;;;;0.00;0.00;;;12.00;99.90;;;;;;5068857;28;20036;-55
2024/01/24 12:57:33;;;;;;;0.00;0.00;;;12.00;99.90;;;;;;5068876;28;20040;-55
2024/01/24 12:59:59;;;;;;;0.00;0.00;;;12.10;99.90;;;;;;5061510;28;20055;-55
2024/01/24 13:02:26;;;;;;;0.00;0.00;;;12.10;99.90;;;;;;5067938;28;20502;-56
2024/01/24 13:04:54;;;;;;;0.00;0.00;;;12.20;99.90;;;;;;5063891;28;20025;-56
2024/01/24 13:07:20;;;;;;;0.00;0.00;;;12.20;99.90;;;;;;5067698;28;20032;-57
2024/01/24 13:09:46;;;;;;;0.00;0.00;;;12.20;99.90;;;;;;5064886;28;20065;-56
2024/01/24 13:12:12;;;;;;;0.00;0.00;;;12.20;99.90;;;;;;5064421;28;20077;-56
2024/01/24 13:14:38;;;;;;;0.00;0.00;;;12.30;99.90;;;;;;5061596;28;20040;-56
2024/01/24 13:17:04;;;;;;;0.00;0.00;;;12.30;99.90;;;;;;5043932;28;20135;-55
2024/01/24 13:19:30;;;;;;;0.00;0.00;;;12.20;99.90;;;;;;5064965;28;20109;-55
2024/01/24 13:21:58;;;;;;;0.00;0.00;;;12.20;99.90;;;;;;5068114;28;20024;-56
2024/01/24 13:24:25;;;;;;;0.00;0.00;;;12.30;99.90;;;;;;5060070;28;20028;-55
2024/01/24 13:26:51;;;;;;;0.00;0.00;;;12.30;99.90;;;;;;5064561;28;20483;-56